createdAt,value
2023-02-26T00:00:56.927Z,-0.66
2023-02-26T00:03:29.923Z,-0.67
2023-02-26T00:06:02.526Z,-0.72
2023-02-26T00:08:36.324Z,-0.75
2023-02-26T00:11:12.729Z,-1.12
2023-02-26T00:13:46.446Z,-1.00
2023-02-26T00:16:29.603Z,-0.70
2023-02-26T00:19:06.818Z,-0.82
2023-02-26T00:21:40.061Z,-0.55
2023-02-26T00:24:12.567Z,-0.50
2023-02-26T00:26:45.211Z,-0.56
2023-02-26T00:29:18.256Z,-0.57
2023-02-26T00:31:51.185Z,-0.62
2023-02-26T00:34:24.342Z,-0.35
2023-02-26T00:37:37.410Z,-0.34
2023-02-26T00:40:28.230Z,-0.25
2023-02-26T00:43:01.285Z,-0.26
2023-02-26T00:45:35.924Z,-0.40
2023-02-26T00:48:35.780Z,-0.29
2023-02-26T00:51:23.607Z,-0.09
2023-02-26T00:54:22.140Z,0.07
2023-02-26T00:56:57.497Z,-0.02
2023-02-26T00:59:30.023Z,0.00
2023-02-26T01:02:02.668Z,-0.03
2023-02-26T01:04:36.963Z,-0.01
2023-02-26T01:07:10.797Z,-0.04
2023-02-26T01:09:43.600Z,0.02
2023-02-26T01:12:17.492Z,-0.09
2023-02-26T01:14:52.263Z,-0.12
2023-02-26T01:17:50.569Z,-0.36
2023-02-26T01:20:36.858Z,-0.27
2023-02-26T01:23:15.845Z,-0.25
2023-02-26T01:25:59.225Z,-0.30
2023-02-26T01:28:32.182Z,-0.41
2023-02-26T01:31:23.313Z,-0.49
2023-02-26T01:34:11.650Z,-0.43
2023-02-26T01:36:56.608Z,-0.38
2023-02-26T01:39:40.471Z,-0.42
2023-02-26T01:42:27.292Z,-0.31
2023-02-26T01:45:10.897Z,-0.46
2023-02-26T01:47:54.642Z,-0.48
2023-02-26T01:50:32.005Z,-0.43
2023-02-26T01:53:26.831Z,-0.47
2023-02-26T01:56:09.787Z,-0.51
2023-02-26T01:58:43.993Z,-0.57
2023-02-26T02:01:16.530Z,-0.62
2023-02-26T02:03:49.139Z,-0.61
2023-02-26T02:06:27.941Z,-0.67
2023-02-26T02:09:05.192Z,-0.55
2023-02-26T02:12:00.976Z,-0.67
2023-02-26T02:15:04.742Z,-0.65
2023-02-26T02:18:01.084Z,-0.64
2023-02-26T02:21:16.918Z,-0.76
2023-02-26T02:23:55.754Z,-0.66
2023-02-26T02:26:56.065Z,-0.66
2023-02-26T02:29:54.719Z,-0.66
2023-02-26T02:32:51.077Z,-0.57
2023-02-26T02:35:38.964Z,-0.66
2023-02-26T02:38:20.345Z,-0.75
2023-02-26T02:41:03.330Z,-0.68
2023-02-26T02:43:41.724Z,-0.81
2023-02-26T02:46:23.563Z,-0.84
2023-02-26T02:49:13.164Z,-0.92
2023-02-26T02:52:05.360Z,-0.82
2023-02-26T02:54:57.195Z,-0.84
2023-02-26T02:57:55.870Z,-0.89
2023-02-26T03:00:36.498Z,-1.03
2023-02-26T03:03:35.222Z,-0.98
2023-02-26T03:06:07.973Z,-1.04
2023-02-26T03:08:43.994Z,-1.08
2023-02-26T03:11:16.643Z,-1.02
2023-02-26T03:13:53.087Z,-1.09
2023-02-26T03:17:08.072Z,-1.17
2023-02-26T03:19:46.606Z,-1.32
2023-02-26T03:22:39.415Z,-1.27
2023-02-26T03:25:24.922Z,-1.31
2023-02-26T03:28:31.074Z,-1.34
2023-02-26T03:31:15.272Z,-1.42
2023-02-26T03:34:01.547Z,-1.53
2023-02-26T03:36:46.414Z,-1.51
2023-02-26T03:39:29.314Z,-1.49
2023-02-26T03:42:24.694Z,-1.47
2023-02-26T03:45:13.342Z,-1.41
2023-02-26T03:47:53.703Z,-1.47
2023-02-26T03:50:41.244Z,-1.46
2023-02-26T03:53:27.075Z,-1.57
2023-02-26T03:56:15.762Z,-1.47
2023-02-26T03:58:48.507Z,-1.53
2023-02-26T04:01:35.198Z,-1.51
2023-02-26T04:04:25.787Z,-1.60
2023-02-26T04:06:58.700Z,-1.46
2023-02-26T04:09:31.503Z,-1.59
2023-02-26T04:12:04.283Z,-1.63
2023-02-26T04:14:37.319Z,-1.59
2023-02-26T04:17:09.921Z,-1.77
2023-02-26T04:19:42.484Z,-1.71
2023-02-26T04:22:15.805Z,-1.74
2023-02-26T04:24:48.329Z,-1.83
2023-02-26T04:27:20.908Z,-1.85
2023-02-26T04:29:53.467Z,-1.80
2023-02-26T04:32:26.136Z,-1.90
2023-02-26T04:34:58.669Z,-1.88
2023-02-26T04:37:31.182Z,-1.93
2023-02-26T04:40:04.864Z,-1.99
2023-02-26T04:42:37.455Z,-2.02
2023-02-26T04:45:10.222Z,-1.98
2023-02-26T04:47:42.752Z,-1.96
2023-02-26T04:50:15.331Z,-1.94
2023-02-26T04:52:48.074Z,-2.00
2023-02-26T04:55:20.531Z,-2.00
2023-02-26T04:57:53.420Z,-1.92
2023-02-26T05:00:26.055Z,-2.07
2023-02-26T05:02:58.703Z,-2.12
2023-02-26T05:05:31.626Z,-1.95
2023-02-26T05:08:04.132Z,-2.00
2023-02-26T05:10:36.644Z,-1.98
2023-02-26T05:13:09.158Z,-2.04
2023-02-26T05:15:41.701Z,-2.07
2023-02-26T05:18:14.316Z,-2.05
2023-02-26T05:20:53.693Z,-2.04
2023-02-26T05:23:27.165Z,-2.00
2023-02-26T05:26:00.053Z,-2.10
2023-02-26T05:28:33.869Z,-2.08
2023-02-26T05:31:06.755Z,-2.17
2023-02-26T05:33:39.444Z,-2.12
2023-02-26T05:36:12.769Z,-2.25
2023-02-26T05:38:45.357Z,-2.17
2023-02-26T05:41:17.923Z,-2.20
2023-02-26T05:43:50.640Z,-2.19
2023-02-26T05:46:23.395Z,-2.26
2023-02-26T05:48:56.058Z,-2.31
2023-02-26T05:51:29.252Z,-2.36
2023-02-26T05:54:01.764Z,-2.44
2023-02-26T05:56:34.289Z,-2.39
2023-02-26T05:59:07.175Z,-2.43
2023-02-26T06:01:39.712Z,-2.37
2023-02-26T06:04:12.291Z,-2.41
2023-02-26T06:06:45.059Z,-2.38
2023-02-26T06:09:17.882Z,-2.36
2023-02-26T06:11:50.521Z,-2.52
2023-02-26T06:14:23.115Z,-2.30
2023-02-26T06:16:55.688Z,-2.46
2023-02-26T06:19:28.193Z,-2.38
2023-02-26T06:22:00.867Z,-2.37
2023-02-26T06:24:33.409Z,-2.45
2023-02-26T06:27:06.215Z,-2.45
2023-02-26T06:29:39.205Z,-2.43
2023-02-26T06:32:11.925Z,-2.38
2023-02-26T06:34:44.502Z,-2.27
2023-02-26T06:37:17.104Z,-2.33
2023-02-26T06:39:49.613Z,-2.42
2023-02-26T06:42:22.926Z,-2.30
2023-02-26T06:44:57.096Z,-2.35
2023-02-26T06:47:29.672Z,-2.44
2023-02-26T06:50:03.969Z,-2.32
2023-02-26T06:52:36.646Z,-2.30
2023-02-26T06:55:10.384Z,-2.28
2023-02-26T06:57:42.974Z,-2.37
2023-02-26T07:00:16.095Z,-2.17
2023-02-26T07:02:48.603Z,-2.22
2023-02-26T07:05:21.168Z,-2.14
2023-02-26T07:07:54.091Z,-2.14
2023-02-26T07:10:26.745Z,-2.06
2023-02-26T07:12:59.498Z,-2.20
2023-02-26T07:15:32.193Z,-2.11
2023-02-26T07:18:04.800Z,-1.99
2023-02-26T07:20:37.291Z,-1.92
2023-02-26T07:23:09.795Z,-1.94
2023-02-26T07:25:42.364Z,-1.80
2023-02-26T07:28:14.910Z,-1.79
2023-02-26T07:30:47.555Z,-1.83
2023-02-26T07:33:20.211Z,-1.60
2023-02-26T07:35:52.720Z,-1.52
2023-02-26T07:38:25.256Z,-1.55
2023-02-26T07:40:57.884Z,-1.45
2023-02-26T07:43:30.421Z,-1.44
2023-02-26T07:46:04.207Z,-1.25
2023-02-26T07:48:37.219Z,-1.24
2023-02-26T07:51:11.082Z,-1.30
2023-02-26T07:53:43.663Z,-1.21
2023-02-26T07:56:16.239Z,-1.26
2023-02-26T07:58:48.915Z,-1.25
2023-02-26T08:01:21.481Z,-1.09
2023-02-26T08:03:54.048Z,-1.06
2023-02-26T08:06:27.550Z,-0.83
2023-02-26T08:09:00.264Z,-0.73
2023-02-26T08:11:36.480Z,-0.82
2023-02-26T08:14:11.918Z,-0.79
2023-02-26T08:16:44.516Z,-0.66
2023-02-26T08:19:17.023Z,-0.57
2023-02-26T08:21:50.782Z,-0.64
2023-02-26T08:24:23.664Z,-0.41
2023-02-26T08:26:56.952Z,-0.34
2023-02-26T08:29:29.540Z,-0.28
2023-02-26T08:32:02.197Z,-0.48
2023-02-26T08:34:35.108Z,-0.29
2023-02-26T08:37:09.348Z,-0.16
2023-02-26T08:39:41.865Z,-0.02
2023-02-26T08:42:16.395Z,-0.16
2023-02-26T08:44:49.208Z,0.03
2023-02-26T08:47:28.376Z,0.09
2023-02-26T08:50:03.148Z,0.18
2023-02-26T08:52:35.942Z,0.43
2023-02-26T08:55:09.038Z,0.29
2023-02-26T08:57:41.575Z,0.16
2023-02-26T09:00:18.742Z,0.52
2023-02-26T09:02:51.395Z,0.62
2023-02-26T09:05:24.057Z,0.62
2023-02-26T09:07:56.659Z,0.67
2023-02-26T09:10:29.367Z,0.73
2023-02-26T09:13:02.001Z,0.71
2023-02-26T09:15:34.577Z,0.64
2023-02-26T09:18:07.285Z,0.82
2023-02-26T09:20:39.832Z,1.03
2023-02-26T09:23:13.460Z,0.92
2023-02-26T09:25:46.378Z,1.13
2023-02-26T09:28:18.925Z,1.16
2023-02-26T09:30:55.831Z,1.27
2023-02-26T09:33:28.428Z,1.28
2023-02-26T09:36:01.458Z,1.42
2023-02-26T09:38:35.927Z,1.48
2023-02-26T09:41:25.007Z,1.52
2023-02-26T09:44:21.632Z,1.69
2023-02-26T09:47:03.952Z,1.94
2023-02-26T09:49:55.037Z,1.93
2023-02-26T09:52:42.582Z,1.85
2023-02-26T09:55:27.840Z,1.82
2023-02-26T09:58:05.131Z,1.82
2023-02-26T10:00:52.305Z,2.16
2023-02-26T10:04:02.409Z,1.94
2023-02-26T10:07:27.332Z,2.20
2023-02-26T10:10:15.043Z,2.11
2023-02-26T10:12:52.444Z,2.16
2023-02-26T10:15:32.226Z,2.01
2023-02-26T10:18:27.145Z,2.07
2023-02-26T10:21:17.196Z,2.32
2023-02-26T10:23:58.776Z,2.40
2023-02-26T10:27:12.136Z,2.06
2023-02-26T10:30:02.693Z,2.49
2023-02-26T10:32:57.895Z,2.59
2023-02-26T10:35:42.396Z,2.70
2023-02-26T10:38:24.702Z,2.93
2023-02-26T10:41:15.731Z,2.67
2023-02-26T10:44:03.082Z,2.41
2023-02-26T10:46:56.471Z,2.61
2023-02-26T10:49:56.544Z,2.67
2023-02-26T10:52:34.450Z,2.79
2023-02-26T10:55:38.850Z,2.79
2023-02-26T10:58:18.468Z,2.48
2023-02-26T11:00:54.841Z,2.65
2023-02-26T11:03:40.338Z,2.67
2023-02-26T11:06:27.280Z,2.98
2023-02-26T11:09:02.318Z,2.73
2023-02-26T11:11:45.657Z,2.85
2023-02-26T11:14:21.649Z,2.58
2023-02-26T11:16:58.824Z,2.70
2023-02-26T11:19:36.461Z,2.74
2023-02-26T11:22:15.366Z,2.74
2023-02-26T11:24:51.161Z,2.98
2023-02-26T11:27:36.768Z,2.85
2023-02-26T11:30:18.548Z,2.89
2023-02-26T11:32:58.423Z,2.98
2023-02-26T11:35:31.093Z,2.83
2023-02-26T11:38:03.845Z,3.08
2023-02-26T11:40:42.289Z,3.08
2023-02-26T11:43:20.458Z,3.09
2023-02-26T11:45:59.242Z,3.37
2023-02-26T11:48:46.218Z,3.30
2023-02-26T11:51:27.300Z,3.08
2023-02-26T11:54:01.993Z,3.33
2023-02-26T11:56:42.021Z,3.21
2023-02-26T11:59:22.747Z,3.54
2023-02-26T12:01:55.483Z,3.14
2023-02-26T12:04:28.067Z,3.20
2023-02-26T12:07:00.647Z,3.23
2023-02-26T12:09:33.642Z,3.48
2023-02-26T12:12:18.279Z,3.48
2023-02-26T12:14:58.015Z,3.49
2023-02-26T12:18:16.471Z,3.40
2023-02-26T12:21:27.646Z,3.68
2023-02-26T12:25:17.023Z,3.84
2023-02-26T12:28:14.676Z,3.62
2023-02-26T12:31:16.009Z,3.72
2023-02-26T12:34:08.070Z,3.71
2023-02-26T12:37:18.885Z,3.79
2023-02-26T12:40:23.721Z,3.58
2023-02-26T12:43:18.538Z,3.96
2023-02-26T12:46:06.736Z,3.87
2023-02-26T12:49:20.777Z,3.91
2023-02-26T12:52:54.201Z,3.97
2023-02-26T12:55:56.368Z,4.07
2023-02-26T12:59:06.415Z,4.25
2023-02-26T13:02:01.753Z,4.33
2023-02-26T13:04:52.992Z,4.18
2023-02-26T13:07:56.787Z,4.22
2023-02-26T13:10:34.766Z,4.17
2023-02-26T13:13:44.495Z,4.29
2023-02-26T13:16:56.357Z,4.35
2023-02-26T13:19:43.302Z,4.48
2023-02-26T13:22:35.486Z,4.52
2023-02-26T13:25:59.013Z,4.67
2023-02-26T13:28:46.726Z,4.63
2023-02-26T13:31:41.843Z,4.43
2023-02-26T13:34:39.574Z,4.73
2023-02-26T13:37:40.713Z,4.82
2023-02-26T13:41:03.719Z,4.70
2023-02-26T13:44:44.218Z,4.49
2023-02-26T13:48:02.111Z,4.63
2023-02-26T13:51:25.934Z,4.67
2023-02-26T13:54:04.505Z,4.85
2023-02-26T13:56:37.047Z,5.17
2023-02-26T13:59:12.520Z,4.89
2023-02-26T14:01:55.279Z,4.85
2023-02-26T14:04:57.866Z,4.64
2023-02-26T14:07:52.311Z,4.46
2023-02-26T14:10:49.612Z,4.45
2023-02-26T14:13:39.908Z,4.78
2023-02-26T14:16:29.275Z,4.76
2023-02-26T14:19:14.881Z,5.00
2023-02-26T14:22:19.315Z,5.05
2023-02-26T14:24:58.059Z,4.86
2023-02-26T14:27:39.309Z,5.08
2023-02-26T14:30:11.873Z,4.97
2023-02-26T14:33:09.805Z,4.86
2023-02-26T14:35:49.472Z,4.81
2023-02-26T14:38:28.443Z,5.00
2023-02-26T14:41:21.587Z,5.20
2023-02-26T14:44:16.023Z,4.95
2023-02-26T14:46:51.901Z,5.17
2023-02-26T14:49:32.027Z,5.21
2023-02-26T14:52:48.286Z,4.97
2023-02-26T14:55:47.582Z,4.90
2023-02-26T14:58:42.085Z,4.93
2023-02-26T15:01:22.516Z,4.95
2023-02-26T15:04:34.738Z,5.06
2023-02-26T15:07:38.884Z,4.93
2023-02-26T15:10:15.493Z,4.82
2023-02-26T15:13:15.134Z,4.96
2023-02-26T15:16:46.880Z,4.78
2023-02-26T15:19:52.041Z,4.83
2023-02-26T15:22:40.943Z,4.77
2023-02-26T15:25:25.870Z,4.96
2023-02-26T15:27:58.687Z,4.84
2023-02-26T15:30:33.628Z,4.82
2023-02-26T15:33:16.280Z,4.81
2023-02-26T15:35:51.947Z,4.90
2023-02-26T15:38:25.264Z,4.61
2023-02-26T15:41:03.884Z,4.68
2023-02-26T15:43:36.852Z,4.76
2023-02-26T15:46:10.721Z,4.82
2023-02-26T15:48:44.538Z,4.57
2023-02-26T15:51:20.404Z,4.67
2023-02-26T15:53:55.611Z,4.89
2023-02-26T15:56:36.696Z,4.71
2023-02-26T15:59:18.440Z,4.75
2023-02-26T16:01:51.263Z,4.85
2023-02-26T16:04:24.167Z,4.58
2023-02-26T16:06:58.968Z,4.65
2023-02-26T16:09:36.379Z,4.59
2023-02-26T16:12:23.709Z,4.63
2023-02-26T16:15:08.146Z,4.62
2023-02-26T16:17:45.896Z,4.64
2023-02-26T16:20:23.452Z,4.40
2023-02-26T16:23:05.870Z,4.63
2023-02-26T16:25:58.584Z,4.31
2023-02-26T16:28:37.816Z,4.35
2023-02-26T16:31:19.553Z,4.34
2023-02-26T16:34:21.997Z,4.24
2023-02-26T16:36:54.664Z,4.19
2023-02-26T16:39:31.300Z,4.48
2023-02-26T16:42:19.828Z,4.67
2023-02-26T16:45:17.178Z,4.82
2023-02-26T16:47:55.317Z,4.83
2023-02-26T16:50:34.694Z,4.65
2023-02-26T16:53:18.571Z,4.43
2023-02-26T16:55:55.780Z,4.34
2023-02-26T16:58:30.573Z,4.33
2023-02-26T17:01:14.910Z,4.07
2023-02-26T17:03:58.716Z,3.92
2023-02-26T17:06:31.506Z,3.96
2023-02-26T17:09:10.289Z,3.67
2023-02-26T17:11:45.564Z,3.53
2023-02-26T17:14:27.340Z,3.45
2023-02-26T17:16:59.831Z,3.36
2023-02-26T17:19:32.636Z,3.42
2023-02-26T17:22:13.759Z,3.36
2023-02-26T17:24:48.439Z,3.14
2023-02-26T17:27:34.082Z,3.11
2023-02-26T17:30:12.619Z,3.19
2023-02-26T17:32:45.405Z,3.05
2023-02-26T17:35:19.173Z,2.92
2023-02-26T17:37:52.540Z,3.11
2023-02-26T17:40:31.395Z,3.08
2023-02-26T17:43:05.074Z,2.93
2023-02-26T17:45:40.327Z,2.72
2023-02-26T17:48:16.040Z,2.84
2023-02-26T17:50:52.495Z,2.78
2023-02-26T17:53:30.752Z,2.62
2023-02-26T17:56:03.356Z,2.60
2023-02-26T17:58:36.122Z,2.58
2023-02-26T18:01:10.788Z,2.50
2023-02-26T18:03:44.043Z,2.39
2023-02-26T18:06:17.839Z,2.35
2023-02-26T18:08:50.709Z,2.30
2023-02-26T18:11:26.126Z,2.21
2023-02-26T18:13:59.186Z,2.20
2023-02-26T18:16:45.417Z,2.05
2023-02-26T18:19:18.019Z,2.12
2023-02-26T18:21:50.796Z,2.00
2023-02-26T18:24:23.950Z,1.85
2023-02-26T18:26:56.538Z,1.86
2023-02-26T18:29:29.096Z,1.73
2023-02-26T18:32:03.622Z,1.61
2023-02-26T18:34:36.492Z,1.57
2023-02-26T18:37:20.127Z,1.51
2023-02-26T18:39:53.427Z,1.39
2023-02-26T18:42:28.309Z,1.48
2023-02-26T18:45:00.882Z,1.44
2023-02-26T18:47:33.613Z,1.60
2023-02-26T18:50:08.707Z,1.67
2023-02-26T18:52:43.130Z,1.79
2023-02-26T18:55:15.767Z,1.93
2023-02-26T18:57:48.286Z,2.00
2023-02-26T19:00:21.483Z,2.04
2023-02-26T19:02:55.942Z,2.08
2023-02-26T19:05:28.517Z,2.12
2023-02-26T19:08:01.226Z,2.08
2023-02-26T19:10:34.572Z,2.12
2023-02-26T19:13:07.062Z,2.20
2023-02-26T19:15:39.594Z,2.13
2023-02-26T19:18:12.130Z,2.15
2023-02-26T19:20:44.893Z,2.21
2023-02-26T19:23:17.702Z,2.08
2023-02-26T19:25:54.084Z,2.06
2023-02-26T19:28:26.695Z,1.87
2023-02-26T19:30:59.307Z,2.00
2023-02-26T19:33:31.899Z,1.72
2023-02-26T19:36:05.119Z,1.87
2023-02-26T19:38:37.908Z,1.79
2023-02-26T19:41:10.508Z,1.56
2023-02-26T19:43:43.061Z,1.63
2023-02-26T19:46:16.106Z,1.55
2023-02-26T19:48:49.365Z,1.52
2023-02-26T19:51:21.913Z,1.51
2023-02-26T19:53:54.475Z,1.30
2023-02-26T19:56:27.251Z,1.25
2023-02-26T19:58:59.872Z,1.37
2023-02-26T20:01:32.465Z,1.41
2023-02-26T20:04:05.037Z,1.34
2023-02-26T20:06:38.037Z,1.15
2023-02-26T20:09:12.129Z,1.33
2023-02-26T20:11:45.009Z,1.28
2023-02-26T20:14:18.428Z,1.24
2023-02-26T20:16:51.028Z,1.26
2023-02-26T20:19:23.882Z,1.10
2023-02-26T20:21:56.425Z,1.21
2023-02-26T20:24:29.034Z,1.03
2023-02-26T20:27:01.731Z,0.93
2023-02-26T20:29:34.487Z,0.94
2023-02-26T20:32:07.477Z,0.92
2023-02-26T20:34:40.103Z,0.76
2023-02-26T20:37:12.686Z,0.86
2023-02-26T20:39:46.204Z,0.80
2023-02-26T20:42:18.880Z,0.56
2023-02-26T20:44:51.420Z,0.69
2023-02-26T20:47:24.023Z,0.76
2023-02-26T20:49:56.553Z,0.73
2023-02-26T20:52:29.136Z,0.85
2023-02-26T20:55:01.708Z,0.67
2023-02-26T20:57:35.322Z,0.84
2023-02-26T21:00:13.718Z,0.73
2023-02-26T21:02:46.554Z,0.82
2023-02-26T21:05:19.582Z,0.67
2023-02-26T21:07:52.068Z,0.67
2023-02-26T21:10:24.556Z,0.58
2023-02-26T21:12:57.078Z,0.51
2023-02-26T21:15:29.703Z,0.62
2023-02-26T21:18:02.391Z,0.48
2023-02-26T21:20:35.569Z,0.59
2023-02-26T21:23:08.211Z,0.62
2023-02-26T21:25:40.841Z,0.41
2023-02-26T21:28:13.376Z,0.50
2023-02-26T21:30:46.106Z,0.43
2023-02-26T21:33:19.611Z,0.38
2023-02-26T21:35:52.561Z,0.33
2023-02-26T21:38:25.115Z,0.19
2023-02-26T21:40:57.739Z,0.18
2023-02-26T21:43:30.330Z,0.28
2023-02-26T21:46:04.233Z,0.01
2023-02-26T21:48:36.724Z,0.25
2023-02-26T21:51:09.313Z,0.17
2023-02-26T21:53:42.640Z,0.05
2023-02-26T21:56:16.157Z,-0.09
2023-02-26T21:58:48.732Z,-0.14
2023-02-26T22:01:21.851Z,-0.10
2023-02-26T22:03:54.566Z,-0.23
2023-02-26T22:06:27.404Z,-0.31
2023-02-26T22:08:59.910Z,-0.30
2023-02-26T22:11:32.517Z,-0.36
2023-02-26T22:14:05.074Z,-0.33
2023-02-26T22:16:37.672Z,-0.40
2023-02-26T22:19:10.208Z,-0.41
2023-02-26T22:21:42.837Z,-0.44
2023-02-26T22:24:15.394Z,-0.60
2023-02-26T22:26:49.303Z,-0.50
2023-02-26T22:29:22.582Z,-0.61
2023-02-26T22:31:56.638Z,-0.51
2023-02-26T22:34:33.069Z,-0.62
2023-02-26T22:37:05.629Z,-0.61
2023-02-26T22:39:38.131Z,-0.64
2023-02-26T22:42:10.715Z,-0.76
2023-02-26T22:44:43.399Z,-0.63
2023-02-26T22:47:15.900Z,-0.66
2023-02-26T22:49:48.917Z,-0.73
2023-02-26T22:52:21.433Z,-0.71
2023-02-26T22:54:54.061Z,-0.80
2023-02-26T22:57:26.589Z,-0.91
2023-02-26T22:59:59.118Z,-0.86
2023-02-26T23:02:31.591Z,-0.94
2023-02-26T23:05:09.195Z,-1.02
2023-02-26T23:07:42.400Z,-0.95
2023-02-26T23:10:19.253Z,-1.02
2023-02-26T23:12:51.803Z,-0.99
2023-02-26T23:15:24.332Z,-1.00
2023-02-26T23:17:56.890Z,-1.04
2023-02-26T23:20:29.687Z,-1.03
2023-02-26T23:23:02.212Z,-0.97
2023-02-26T23:25:34.868Z,-1.01
2023-02-26T23:28:08.497Z,-1.07
2023-02-26T23:30:42.002Z,-1.09
2023-02-26T23:33:15.086Z,-1.12
2023-02-26T23:35:48.262Z,-1.22
2023-02-26T23:38:20.792Z,-1.19
2023-02-26T23:40:53.443Z,-1.21
2023-02-26T23:43:26.014Z,-1.23
2023-02-26T23:45:58.789Z,-1.28
2023-02-26T23:48:31.412Z,-1.31
2023-02-26T23:51:04.310Z,-1.29
2023-02-26T23:53:37.256Z,-1.36
2023-02-26T23:56:09.829Z,-1.34
2023-02-26T23:58:42.605Z,-1.45
